Time;durP1;ratioP1;P1;durP2;ratioP2;P2;SDS_P1;SDS_P2;PMS_P1;PMS_P2;Temp;Humidity;BMP_temperature;BMP_pressure;BME280_temperature;BME280_humidity;BME280_pressure;Samples;Min_cycle;Max_cycle;Signal;HPM_P1;HPM_P2
2022/03/13 00:00:23;;;;;;;2.20;1.77;;;;;;;;;;1749983;80;27522;-85
2022/03/13 00:02:54;;;;;;;2.80;1.82;;;;;;;;;;1747692;80;26312;-84
2022/03/13 00:05:19;;;;;;;1.90;1.80;;;;;;;;;;1758749;80;26340;-85
2022/03/13 00:07:47;;;;;;;2.00;1.60;;;;;;;;;;1757005;80;26386;-85
2022/03/13 00:10:19;;;;;;;1.80;1.70;;;;;;;;;;1754418;80;26423;-83
2022/03/13 00:12:48;;;;;;;1.90;1.80;;;;;;;;;;1744391;80;26294;-83
2022/03/13 00:15:17;;;;;;;1.80;1.67;;;;;;;;;;1755916;81;26381;-83
2022/03/13 00:17:44;;;;;;;1.98;1.80;;;;;;;;;;1749120;81;26370;-85
2022/03/13 00:20:12;;;;;;;3.87;1.90;;;;;;;;;;1743241;81;26286;-84
2022/03/13 00:22:39;;;;;;;2.52;1.52;;;;;;;;;;1737742;81;25438;-83
2022/03/13 00:25:10;;;;;;;1.47;1.47;;;;;;;;;;1726556;82;26290;-83
2022/03/13 00:27:37;;;;;;;1.87;1.75;;;;;;;;;;1724402;82;26368;-83
2022/03/13 00:30:05;;;;;;;1.85;1.75;;;;;;;;;;1729376;82;26225;-86
2022/03/13 00:32:32;;;;;;;1.80;1.70;;;;;;;;;;1729537;81;26293;-83
2022/03/13 00:35:00;;;;;;;2.45;1.70;;;;;;;;;;1752034;81;26300;-83
2022/03/13 00:37:27;;;;;;;1.62;1.52;;;;;;;;;;1742386;80;26288;-83
2022/03/13 00:39:56;;;;;;;2.20;1.90;;;;;;;;;;1717376;82;26297;-83
2022/03/13 00:42:24;;;;;;;1.70;1.60;;;;;;;;;;1734328;81;26432;-83
2022/03/13 00:44:51;;;;;;;1.95;1.85;;;;;;;;;;1729743;82;26345;-83
2022/03/13 00:47:19;;;;;;;2.77;1.87;;;;;;;;;;1743035;82;27786;-84
2022/03/13 00:49:46;;;;;;;1.67;1.57;;;;;;;;;;1724395;82;26391;-84
2022/03/13 00:52:14;;;;;;;2.10;1.70;;;;;;;;;;1751302;81;26759;-85
2022/03/13 00:54:41;;;;;;;1.80;1.70;;;;;;;;;;1749809;81;26361;-83
2022/03/13 00:57:08;;;;;;;1.67;1.57;;;;;;;;;;1716024;82;26245;-83
2022/03/13 00:59:36;;;;;;;1.77;1.62;;;;;;;;;;1736141;82;26718;-85
2022/03/13 01:02:03;;;;;;;1.77;1.52;;;;;;;;;;1724892;82;26717;-83
2022/03/13 01:04:30;;;;;;;1.70;1.60;;;;;;;;;;1742533;82;26277;-83
2022/03/13 01:06:57;;;;;;;2.02;1.65;;;;;;;;;;1718760;82;26386;-83
2022/03/13 01:09:25;;;;;;;1.87;1.62;;;;;;;;;;1725644;82;26273;-83
2022/03/13 01:11:52;;;;;;;2.15;1.50;;;;;;;;;;1734720;82;26293;-83
2022/03/13 01:14:20;;;;;;;2.05;1.55;;;;;;;;;;1731918;82;26289;-84
2022/03/13 01:16:48;;;;;;;1.80;1.70;;;;;;;;;;1724452;82;26313;-83
2022/03/13 01:19:16;;;;;;;1.77;1.67;;;;;;;;;;1727100;82;26320;-83
2022/03/13 01:21:44;;;;;;;1.40;1.30;;;;;;;;;;1715990;82;26253;-83
2022/03/13 01:24:13;;;;;;;1.95;1.47;;;;;;;;;;1746173;81;26934;-83
2022/03/13 01:26:42;;;;;;;1.67;1.57;;;;;;;;;;1761870;81;26297;-83
2022/03/13 01:29:10;;;;;;;3.20;1.70;;;;;;;;;;1754404;81;26384;-83
2022/03/13 01:31:38;;;;;;;3.05;1.70;;;;;;;;;;1742740;81;26842;-85
2022/03/13 01:34:07;;;;;;;2.75;1.80;;;;;;;;;;1748232;80;26237;-83
2022/03/13 01:36:35;;;;;;;2.42;1.60;;;;;;;;;;1739293;80;26241;-84
2022/03/13 01:39:03;;;;;;;1.70;1.60;;;;;;;;;;1734575;81;25658;-83
2022/03/13 01:41:34;;;;;;;1.60;1.50;;;;;;;;;;1745739;81;26276;-82
2022/03/13 01:44:00;;;;;;;1.65;1.60;;;;;;;;;;1744479;81;26288;-83
2022/03/13 01:46:28;;;;;;;1.90;1.80;;;;;;;;;;1741648;81;26277;-84
2022/03/13 01:49:03;;;;;;;1.70;1.60;;;;;;;;;;1755439;80;26277;-83
2022/03/13 01:51:31;;;;;;;1.85;1.75;;;;;;;;;;1744048;81;26306;-83
2022/03/13 01:54:00;;;;;;;3.35;1.60;;;;;;;;;;1744135;81;26304;-83
2022/03/13 01:56:29;;;;;;;1.70;1.60;;;;;;;;;;1752351;81;26869;-84
2022/03/13 01:58:57;;;;;;;1.77;1.67;;;;;;;;;;1750204;81;26359;-83
2022/03/13 02:01:25;;;;;;;3.83;1.60;;;;;;;;;;1735281;81;26366;-83
2022/03/13 02:03:53;;;;;;;2.17;1.62;;;;;;;;;;1747707;81;26277;-84
2022/03/13 02:06:21;;;;;;;1.62;1.52;;;;;;;;;;1756765;80;26784;-83
2022/03/13 02:08:50;;;;;;;1.55;1.55;;;;;;;;;;1749701;81;26274;-84
2022/03/13 02:11:19;;;;;;;1.70;1.60;;;;;;;;;;1741864;80;26319;-83
2022/03/13 02:13:51;;;;;;;1.85;1.75;;;;;;;;;;1760761;81;26309;-84
2022/03/13 02:16:17;;;;;;;1.98;1.77;;;;;;;;;;1745242;80;26766;-83
2022/03/13 02:18:45;;;;;;;1.52;1.52;;;;;;;;;;1733052;81;26284;-83
2022/03/13 02:21:13;;;;;;;1.95;1.85;;;;;;;;;;1742902;81;26284;-83
2022/03/13 02:23:41;;;;;;;1.80;1.70;;;;;;;;;;1753333;81;26346;-83
2022/03/13 02:26:08;;;;;;;1.60;1.50;;;;;;;;;;1717064;82;26324;-83
2022/03/13 02:28:37;;;;;;;2.90;1.65;;;;;;;;;;1730806;82;26282;-83
2022/03/13 02:31:05;;;;;;;1.77;1.67;;;;;;;;;;1725633;82;26270;-84
2022/03/13 02:33:33;;;;;;;1.70;1.60;;;;;;;;;;1739351;81;26462;-83
2022/03/13 02:36:01;;;;;;;1.60;1.50;;;;;;;;;;1740887;82;25704;-83
2022/03/13 02:38:29;;;;;;;1.80;1.70;;;;;;;;;;1736129;81;26312;-85
2022/03/13 02:40:58;;;;;;;1.70;1.60;;;;;;;;;;1737564;82;26321;-83
2022/03/13 02:43:25;;;;;;;1.72;1.62;;;;;;;;;;1732204;82;26800;-83
2022/03/13 02:45:53;;;;;;;1.65;1.57;;;;;;;;;;1740923;82;26263;-83
2022/03/13 02:48:20;;;;;;;1.80;1.70;;;;;;;;;;1728168;82;26377;-83
2022/03/13 02:50:48;;;;;;;1.77;1.67;;;;;;;;;;1750374;81;26291;-83
2022/03/13 02:53:18;;;;;;;1.70;1.60;;;;;;;;;;1740691;82;26282;-84
2022/03/13 02:55:45;;;;;;;1.95;1.85;;;;;;;;;;1733175;82;26276;-83
2022/03/13 02:58:13;;;;;;;1.60;1.60;;;;;;;;;;1732045;82;26235;-83
2022/03/13 03:00:44;;;;;;;1.70;1.60;;;;;;;;;;1723864;82;26347;-83
2022/03/13 03:03:15;;;;;;;1.77;1.67;;;;;;;;;;1723857;82;26721;-83
2022/03/13 03:05:43;;;;;;;1.50;1.50;;;;;;;;;;1739771;82;26369;-83
2022/03/13 03:08:10;;;;;;;1.40;1.40;;;;;;;;;;1741319;81;26543;-84
2022/03/13 03:10:37;;;;;;;1.98;1.75;;;;;;;;;;1739720;82;27575;-83
2022/03/13 03:13:05;;;;;;;1.72;1.37;;;;;;;;;;1737855;82;26337;-83
2022/03/13 03:15:32;;;;;;;1.85;1.62;;;;;;;;;;1720489;82;26256;-83
2022/03/13 03:18:00;;;;;;;1.52;1.50;;;;;;;;;;1731076;82;26791;-83
2022/03/13 03:20:27;;;;;;;1.82;1.72;;;;;;;;;;1740983;82;26240;-83
2022/03/13 03:22:54;;;;;;;1.80;1.70;;;;;;;;;;1726298;82;26368;-83
2022/03/13 03:25:23;;;;;;;1.80;1.70;;;;;;;;;;1739414;82;26259;-83
2022/03/13 03:27:52;;;;;;;1.70;1.60;;;;;;;;;;1719841;82;26308;-84
2022/03/13 03:30:21;;;;;;;1.80;1.70;;;;;;;;;;1740074;82;26224;-83
2022/03/13 03:32:48;;;;;;;1.70;1.60;;;;;;;;;;1742223;82;26373;-83
2022/03/13 03:35:19;;;;;;;2.55;1.85;;;;;;;;;;1735943;82;26292;-84
2022/03/13 03:37:47;;;;;;;1.77;1.67;;;;;;;;;;1731580;82;26761;-83
2022/03/13 03:40:14;;;;;;;1.80;1.70;;;;;;;;;;1742014;82;26345;-85
2022/03/13 03:42:42;;;;;;;1.82;1.72;;;;;;;;;;1740161;81;26845;-83
2022/03/13 03:45:10;;;;;;;2.00;1.77;;;;;;;;;;1740580;81;26741;-85
2022/03/13 03:47:38;;;;;;;1.80;1.70;;;;;;;;;;1742019;82;26365;-83
2022/03/13 03:50:06;;;;;;;2.00;1.90;;;;;;;;;;1744483;81;26294;-83
2022/03/13 03:52:33;;;;;;;1.65;1.55;;;;;;;;;;1742558;82;26967;-83
2022/03/13 03:55:00;;;;;;;1.65;1.60;;;;;;;;;;1742807;82;26282;-83
2022/03/13 03:57:28;;;;;;;1.85;1.75;;;;;;;;;;1741442;82;26279;-84
2022/03/13 03:59:55;;;;;;;2.05;1.80;;;;;;;;;;1738197;82;26706;-83
2022/03/13 04:02:22;;;;;;;1.80;1.60;;;;;;;;;;1728155;82;26880;-83
2022/03/13 04:04:50;;;;;;;1.72;1.62;;;;;;;;;;1729869;81;26344;-83
2022/03/13 04:07:18;;;;;;;1.80;1.70;;;;;;;;;;1740201;81;26701;-84
2022/03/13 04:09:45;;;;;;;1.65;1.50;;;;;;;;;;1734087;82;26304;-83
2022/03/13 04:12:13;;;;;;;1.80;1.70;;;;;;;;;;1732062;81;26297;-84
2022/03/13 04:14:40;;;;;;;1.95;1.80;;;;;;;;;;1727077;82;26302;-83
2022/03/13 04:17:07;;;;;;;1.82;1.72;;;;;;;;;;1742734;82;26310;-83
2022/03/13 04:19:35;;;;;;;1.80;1.70;;;;;;;;;;1738084;82;26784;-84
2022/03/13 04:22:03;;;;;;;1.50;1.50;;;;;;;;;;1718595;82;26319;-84
2022/03/13 04:24:30;;;;;;;2.12;1.82;;;;;;;;;;1744856;81;26660;-85
2022/03/13 04:26:58;;;;;;;1.95;1.77;;;;;;;;;;1750157;81;26319;-84
2022/03/13 04:29:26;;;;;;;1.92;1.80;;;;;;;;;;1759540;81;26308;-84
2022/03/13 04:31:54;;;;;;;1.62;1.52;;;;;;;;;;1768968;80;26302;-85
2022/03/13 04:34:22;;;;;;;1.52;1.52;;;;;;;;;;1767516;80;26321;-85
2022/03/13 04:36:50;;;;;;;1.75;1.65;;;;;;;;;;1777041;80;26259;-85
2022/03/13 04:39:18;;;;;;;1.55;1.47;;;;;;;;;;1767722;80;26269;-84
2022/03/13 04:41:45;;;;;;;1.80;1.70;;;;;;;;;;1762937;80;26743;-84
2022/03/13 04:44:17;;;;;;;1.80;1.70;;;;;;;;;;1757917;81;26374;-84
2022/03/13 04:46:44;;;;;;;1.62;1.52;;;;;;;;;;1750108;80;26363;-84
2022/03/13 04:49:12;;;;;;;1.62;1.55;;;;;;;;;;1763393;81;26338;-86
2022/03/13 04:51:40;;;;;;;1.40;1.40;;;;;;;;;;1754853;80;26948;-85
2022/03/13 04:54:08;;;;;;;1.77;1.67;;;;;;;;;;1757736;81;26273;-85
2022/03/13 04:56:36;;;;;;;1.70;1.60;;;;;;;;;;1753987;81;26325;-86
2022/03/13 04:59:03;;;;;;;1.70;1.60;;;;;;;;;;1761925;81;26694;-85
2022/03/13 05:01:31;;;;;;;1.65;1.55;;;;;;;;;;1750399;80;26315;-84
2022/03/13 05:03:59;;;;;;;2.60;1.60;;;;;;;;;;1760544;80;26347;-84
2022/03/13 05:06:26;;;;;;;2.17;1.98;;;;;;;;;;1761945;81;26329;-83
2022/03/13 05:08:54;;;;;;;1.57;1.47;;;;;;;;;;1754078;81;26294;-86
2022/03/13 05:11:21;;;;;;;1.70;1.60;;;;;;;;;;1762408;80;26281;-84
2022/03/13 05:13:48;;;;;;;1.80;1.70;;;;;;;;;;1763944;80;26331;-84
2022/03/13 05:16:15;;;;;;;1.80;1.70;;;;;;;;;;1779030;80;26225;-84
2022/03/13 05:18:43;;;;;;;1.67;1.57;;;;;;;;;;1761390;81;26806;-84
2022/03/13 05:21:10;;;;;;;1.80;1.70;;;;;;;;;;1762441;81;26281;-84
2022/03/13 05:23:37;;;;;;;1.90;1.80;;;;;;;;;;1760685;81;26355;-82
2022/03/13 05:26:04;;;;;;;1.55;1.45;;;;;;;;;;1745732;81;26317;-83
2022/03/13 05:28:32;;;;;;;1.60;1.50;;;;;;;;;;1761495;81;26281;-84
2022/03/13 05:31:00;;;;;;;1.90;1.80;;;;;;;;;;1761893;80;26218;-83
2022/03/13 05:33:27;;;;;;;1.72;1.62;;;;;;;;;;1761299;81;26348;-83
2022/03/13 05:35:55;;;;;;;2.22;1.60;;;;;;;;;;1762050;81;26294;-84
2022/03/13 05:38:23;;;;;;;3.30;1.70;;;;;;;;;;1761445;81;26289;-84
2022/03/13 05:40:50;;;;;;;1.62;1.52;;;;;;;;;;1761522;81;26273;-83
2022/03/13 05:43:21;;;;;;;1.62;1.50;;;;;;;;;;1765466;80;26276;-84
2022/03/13 05:45:46;;;;;;;2.27;1.60;;;;;;;;;;1761421;81;26710;-84
2022/03/13 05:48:17;;;;;;;1.47;1.47;;;;;;;;;;1761394;81;26775;-84
2022/03/13 05:50:42;;;;;;;1.62;1.55;;;;;;;;;;1760642;81;26827;-83
2022/03/13 05:53:09;;;;;;;1.87;1.77;;;;;;;;;;1743171;81;26256;-84
2022/03/13 05:55:37;;;;;;;1.90;1.80;;;;;;;;;;1761257;81;26755;-84
2022/03/13 05:58:05;;;;;;;1.72;1.47;;;;;;;;;;1762039;80;26303;-84
2022/03/13 06:00:32;;;;;;;2.85;1.60;;;;;;;;;;1769862;80;26862;-83
2022/03/13 06:03:00;;;;;;;1.50;1.50;;;;;;;;;;1768849;80;26293;-83
2022/03/13 06:05:30;;;;;;;2.70;1.50;;;;;;;;;;1756334;81;26401;-83
2022/03/13 06:07:57;;;;;;;2.05;1.87;;;;;;;;;;1761419;81;26353;-84
2022/03/13 06:10:25;;;;;;;2.02;1.55;;;;;;;;;;1761744;81;26273;-83
2022/03/13 06:12:52;;;;;;;1.85;1.77;;;;;;;;;;1760708;81;26317;-83
2022/03/13 06:15:20;;;;;;;1.60;1.50;;;;;;;;;;1760964;81;26265;-84
2022/03/13 06:17:48;;;;;;;1.50;1.42;;;;;;;;;;1760735;81;26332;-84
2022/03/13 06:20:17;;;;;;;2.40;1.60;;;;;;;;;;1760755;81;26297;-85
2022/03/13 06:22:45;;;;;;;1.70;1.60;;;;;;;;;;1749433;81;26803;-84
2022/03/13 06:25:13;;;;;;;2.83;1.62;;;;;;;;;;1733736;81;26288;-84
2022/03/13 06:27:41;;;;;;;4.17;2.05;;;;;;;;;;1745515;81;26270;-84
2022/03/13 06:30:15;;;;;;;1.92;1.80;;;;;;;;;;1761380;80;26340;-83
2022/03/13 06:32:38;;;;;;;1.62;1.60;;;;;;;;;;1759904;81;26396;-84
2022/03/13 06:35:06;;;;;;;1.72;1.62;;;;;;;;;;1757341;81;26289;-83
2022/03/13 06:37:33;;;;;;;3.33;1.60;;;;;;;;;;1747516;81;26362;-84
2022/03/13 06:40:01;;;;;;;5.12;2.47;;;;;;;;;;1757126;80;26671;-83
2022/03/13 06:42:28;;;;;;;5.78;1.65;;;;;;;;;;1757652;80;26301;-83
2022/03/13 06:44:56;;;;;;;1.75;1.65;;;;;;;;;;1771756;80;26329;-83
2022/03/13 06:47:23;;;;;;;3.58;1.75;;;;;;;;;;1751482;81;26574;-84
2022/03/13 06:49:50;;;;;;;4.30;1.90;;;;;;;;;;1760400;80;26357;-83
2022/03/13 06:52:17;;;;;;;2.27;1.70;;;;;;;;;;1744194;80;26389;-83
2022/03/13 06:54:45;;;;;;;5.20;1.92;;;;;;;;;;1743682;81;26351;-83
2022/03/13 06:57:18;;;;;;;4.78;2.00;;;;;;;;;;1750867;80;26320;-84
2022/03/13 06:59:44;;;;;;;3.77;1.90;;;;;;;;;;1764813;80;26927;-83
2022/03/13 07:02:13;;;;;;;9.60;2.22;;;;;;;;;;1759430;80;26324;-84
2022/03/13 07:04:40;;;;;;;4.53;2.05;;;;;;;;;;1754810;80;26303;-84
2022/03/13 07:07:08;;;;;;;3.08;1.92;;;;;;;;;;1757807;80;26281;-83
2022/03/13 07:09:35;;;;;;;2.47;1.87;;;;;;;;;;1757562;80;26297;-83
2022/03/13 07:12:05;;;;;;;2.90;1.70;;;;;;;;;;1758657;80;26273;-84
2022/03/13 07:14:32;;;;;;;3.50;1.90;;;;;;;;;;1765178;80;26325;-84
2022/03/13 07:17:00;;;;;;;3.25;1.90;;;;;;;;;;1753894;80;27516;-84
2022/03/13 07:19:28;;;;;;;6.58;2.15;;;;;;;;;;1757166;80;26317;-84
2022/03/13 07:21:56;;;;;;;3.80;1.72;;;;;;;;;;1758224;80;26674;-84
2022/03/13 07:24:23;;;;;;;4.00;1.70;;;;;;;;;;1755463;80;26339;-84
2022/03/13 07:26:52;;;;;;;4.45;1.90;;;;;;;;;;1761755;79;26341;-83
2022/03/13 07:29:19;;;;;;;1.95;1.70;;;;;;;;;;1773930;79;26238;-83
2022/03/13 07:31:46;;;;;;;1.80;1.70;;;;;;;;;;1776042;79;26282;-83
2022/03/13 07:34:14;;;;;;;2.55;1.87;;;;;;;;;;1779091;79;26242;-84
2022/03/13 07:36:41;;;;;;;4.70;2.05;;;;;;;;;;1768887;79;26285;-83
2022/03/13 07:39:08;;;;;;;3.58;1.95;;;;;;;;;;1774745;79;26335;-84
2022/03/13 07:41:35;;;;;;;4.15;1.75;;;;;;;;;;1771112;79;26261;-83
2022/03/13 07:44:04;;;;;;;10.58;2.25;;;;;;;;;;1773737;79;26284;-84
2022/03/13 07:46:31;;;;;;;4.47;1.70;;;;;;;;;;1775583;79;25401;-83
2022/03/13 07:48:58;;;;;;;3.05;1.72;;;;;;;;;;1767935;79;26362;-83
2022/03/13 07:51:25;;;;;;;4.03;2.22;;;;;;;;;;1766338;79;26735;-84
2022/03/13 07:53:53;;;;;;;4.80;1.87;;;;;;;;;;1772383;79;26544;-83
2022/03/13 07:56:20;;;;;;;7.65;2.00;;;;;;;;;;1773683;79;26318;-84
2022/03/13 07:58:47;;;;;;;3.98;1.92;;;;;;;;;;1769377;79;26756;-83
2022/03/13 08:01:15;;;;;;;2.95;1.72;;;;;;;;;;1761926;79;26714;-83
2022/03/13 08:03:44;;;;;;;10.32;2.00;;;;;;;;;;1768385;79;27268;-83
2022/03/13 08:06:11;;;;;;;5.87;1.70;;;;;;;;;;1772432;79;26339;-83
2022/03/13 08:08:38;;;;;;;4.60;2.00;;;;;;;;;;1759111;79;26774;-84
2022/03/13 08:11:05;;;;;;;6.92;2.12;;;;;;;;;;1762732;79;26283;-83
2022/03/13 08:13:33;;;;;;;5.85;2.58;;;;;;;;;;1765918;79;26335;-83
2022/03/13 08:16:00;;;;;;;5.58;1.80;;;;;;;;;;1756624;79;26299;-83
2022/03/13 08:18:29;;;;;;;2.90;2.05;;;;;;;;;;1763485;81;26259;-83
2022/03/13 08:20:57;;;;;;;4.65;1.80;;;;;;;;;;1759182;79;26398;-84
2022/03/13 08:23:24;;;;;;;2.20;1.90;;;;;;;;;;1764973;79;26678;-87
2022/03/13 08:25:51;;;;;;;7.28;2.20;;;;;;;;;;1762633;79;26292;-84
2022/03/13 08:28:18;;;;;;;3.70;1.98;;;;;;;;;;1751272;80;26289;-83
2022/03/13 08:30:46;;;;;;;5.67;2.10;;;;;;;;;;1750979;80;26340;-83
2022/03/13 08:33:13;;;;;;;2.17;1.90;;;;;;;;;;1749048;80;25358;-83
2022/03/13 08:35:40;;;;;;;2.55;1.70;;;;;;;;;;1745378;80;26366;-82
2022/03/13 08:38:08;;;;;;;2.42;1.62;;;;;;;;;;1745434;80;26339;-85
2022/03/13 08:40:35;;;;;;;6.53;1.80;;;;;;;;;;1747916;80;26757;-83
2022/03/13 08:43:02;;;;;;;2.40;1.67;;;;;;;;;;1740131;80;26276;-83
2022/03/13 08:45:30;;;;;;;4.80;1.70;;;;;;;;;;1749026;80;26345;-83
2022/03/13 08:47:57;;;;;;;1.95;1.67;;;;;;;;;;1764472;80;26732;-84
2022/03/13 08:50:24;;;;;;;1.82;1.72;;;;;;;;;;1759661;80;26750;-84
2022/03/13 08:52:51;;;;;;;2.75;1.50;;;;;;;;;;1746756;80;26308;-86
2022/03/13 08:55:19;;;;;;;3.67;1.65;;;;;;;;;;1750521;80;26343;-83
2022/03/13 08:57:46;;;;;;;5.45;1.82;;;;;;;;;;1755116;80;26329;-87
2022/03/13 09:00:18;;;;;;;4.85;1.72;;;;;;;;;;1756984;80;25969;-84
2022/03/13 09:02:46;;;;;;;1.98;1.70;;;;;;;;;;1748927;80;26386;-84
2022/03/13 09:05:13;;;;;;;4.87;1.75;;;;;;;;;;1755414;80;26332;-84
2022/03/13 09:07:40;;;;;;;3.15;1.60;;;;;;;;;;1756811;80;26254;-84
2022/03/13 09:10:08;;;;;;;4.12;1.70;;;;;;;;;;1746096;80;26355;-85
2022/03/13 09:12:36;;;;;;;2.90;1.60;;;;;;;;;;1749109;80;26281;-85
2022/03/13 09:15:04;;;;;;;4.50;1.98;;;;;;;;;;1742930;80;26253;-84
2022/03/13 09:17:31;;;;;;;4.40;2.05;;;;;;;;;;1753518;80;26280;-85
2022/03/13 09:19:58;;;;;;;1.65;1.55;;;;;;;;;;1752427;80;26590;-86
2022/03/13 09:22:30;;;;;;;4.33;1.82;;;;;;;;;;1750375;80;26366;-87
2022/03/13 09:24:58;;;;;;;1.70;1.60;;;;;;;;;;1725094;81;26756;-87
2022/03/13 09:27:26;;;;;;;2.58;1.60;;;;;;;;;;1750408;80;26284;-88
2022/03/13 09:29:58;;;;;;;2.90;1.50;;;;;;;;;;1750879;80;26268;-84
2022/03/13 09:32:23;;;;;;;3.70;1.87;;;;;;;;;;1759805;80;26344;-84
2022/03/13 09:34:50;;;;;;;4.03;1.70;;;;;;;;;;1739271;80;26308;-83
2022/03/13 09:37:18;;;;;;;7.62;1.80;;;;;;;;;;1750475;80;26288;-83
2022/03/13 09:39:45;;;;;;;4.53;1.60;;;;;;;;;;1750508;80;26750;-84
2022/03/13 09:42:12;;;;;;;1.72;1.62;;;;;;;;;;1760003;80;26238;-84
2022/03/13 09:44:40;;;;;;;2.90;1.60;;;;;;;;;;1748911;80;26288;-83
2022/03/13 09:47:08;;;;;;;2.62;1.70;;;;;;;;;;1751474;80;26942;-85
2022/03/13 09:49:36;;;;;;;4.83;2.20;;;;;;;;;;1748442;80;26323;-85
2022/03/13 09:52:03;;;;;;;2.05;1.85;;;;;;;;;;1758412;80;26285;-84
2022/03/13 09:54:30;;;;;;;3.83;1.67;;;;;;;;;;1742974;80;26304;-85
2022/03/13 09:56:58;;;;;;;5.58;1.70;;;;;;;;;;1740937;80;26291;-84
2022/03/13 09:59:25;;;;;;;1.95;1.75;;;;;;;;;;1748800;81;26313;-85
2022/03/13 10:01:52;;;;;;;3.35;1.80;;;;;;;;;;1749002;81;26372;-86
2022/03/13 10:04:20;;;;;;;2.10;1.70;;;;;;;;;;1754721;80;26733;-89
2022/03/13 10:07:04;;;;;;;2.02;1.70;;;;;;;;;;1788178;78;26449;-88
2022/03/13 10:09:33;;;;;;;2.22;1.70;;;;;;;;;;1795084;78;26272;-87
2022/03/13 10:12:04;;;;;;;2.58;1.60;;;;;;;;;;1799900;78;26275;-86
2022/03/13 10:14:32;;;;;;;1.75;1.60;;;;;;;;;;1772713;79;26325;-86
2022/03/13 10:16:59;;;;;;;1.98;1.70;;;;;;;;;;1793443;78;26307;-83
2022/03/13 10:19:28;;;;;;;1.82;1.72;;;;;;;;;;1802977;78;26250;-82
2022/03/13 10:22:02;;;;;;;1.70;1.60;;;;;;;;;;1800929;78;26289;-88
2022/03/13 10:24:30;;;;;;;4.87;1.92;;;;;;;;;;1808775;78;26614;-86
2022/03/13 10:27:11;;;;;;;1.90;1.80;;;;;;;;;;1802658;78;26889;-87
2022/03/13 10:29:38;;;;;;;5.62;1.80;;;;;;;;;;1798791;78;26313;-87
2022/03/13 10:32:06;;;;;;;1.70;1.55;;;;;;;;;;1806842;78;26237;-84
2022/03/13 10:34:34;;;;;;;1.67;1.57;;;;;;;;;;1796482;78;27072;-85
2022/03/13 10:37:03;;;;;;;1.98;1.77;;;;;;;;;;1795603;78;26652;-85
2022/03/13 10:39:31;;;;;;;3.08;2.00;;;;;;;;;;1794927;78;28315;-87
2022/03/13 10:42:03;;;;;;;3.08;1.77;;;;;;;;;;1800345;78;26360;-88
2022/03/13 10:44:34;;;;;;;3.42;1.57;;;;;;;;;;1790683;78;26352;-85
2022/03/13 10:47:05;;;;;;;4.85;1.62;;;;;;;;;;1796583;78;26311;-85
2022/03/13 10:49:36;;;;;;;2.70;2.17;;;;;;;;;;1818424;78;26279;-85
2022/03/13 10:52:04;;;;;;;4.10;1.80;;;;;;;;;;1809261;78;26278;-85
2022/03/13 10:54:37;;;;;;;1.98;1.80;;;;;;;;;;1801543;78;26279;-88
2022/03/13 10:57:05;;;;;;;3.22;1.90;;;;;;;;;;1793254;78;26735;-85
2022/03/13 10:59:33;;;;;;;3.12;1.72;;;;;;;;;;1802345;78;26342;-85
2022/03/13 11:02:17;;;;;;;2.10;1.90;;;;;;;;;;1810693;78;26307;-85
2022/03/13 11:04:50;;;;;;;1.67;1.57;;;;;;;;;;1795599;78;26315;-87
2022/03/13 11:07:18;;;;;;;2.45;1.80;;;;;;;;;;1807383;78;26247;-86
2022/03/13 11:09:46;;;;;;;2.35;1.70;;;;;;;;;;1786325;78;26375;-85
2022/03/13 11:12:20;;;;;;;15.88;2.22;;;;;;;;;;1809962;78;26254;-85
2022/03/13 11:14:49;;;;;;;6.08;2.00;;;;;;;;;;1801360;78;26703;-86
2022/03/13 11:17:18;;;;;;;3.50;1.60;;;;;;;;;;1799093;78;26337;-86
2022/03/13 11:19:49;;;;;;;1.72;1.62;;;;;;;;;;1795718;79;26294;-85
2022/03/13 11:22:20;;;;;;;2.58;1.80;;;;;;;;;;1809390;78;26295;-85
2022/03/13 11:24:45;;;;;;;2.10;1.82;;;;;;;;;;1792582;78;26627;-85
2022/03/13 11:27:12;;;;;;;3.92;1.70;;;;;;;;;;1793869;78;26360;-86
2022/03/13 11:29:48;;;;;;;3.27;1.50;;;;;;;;;;1793136;78;26446;-89
2022/03/13 11:32:32;;;;;;;2.20;1.50;;;;;;;;;;1797487;78;26302;-86
2022/03/13 11:35:14;;;;;;;1.50;1.50;;;;;;;;;;1800177;78;26267;-85
2022/03/13 11:37:41;;;;;;;1.85;1.60;;;;;;;;;;1786970;78;26348;-86
2022/03/13 11:40:09;;;;;;;1.67;1.57;;;;;;;;;;1790848;78;26274;-86
2022/03/13 11:42:47;;;;;;;1.70;1.60;;;;;;;;;;1803941;78;26680;-87
2022/03/13 11:45:34;;;;;;;4.53;1.60;;;;;;;;;;1795961;78;26821;-86
2022/03/13 11:47:58;;;;;;;1.37;1.30;;;;;;;;;;1782282;78;26379;-85
2022/03/13 11:50:43;;;;;;;1.95;1.62;;;;;;;;;;1795120;78;26254;-86
2022/03/13 11:53:17;;;;;;;1.25;1.15;;;;;;;;;;1799981;78;26333;-86
2022/03/13 11:55:55;;;;;;;8.35;1.60;;;;;;;;;;1794903;78;26281;-85
2022/03/13 11:58:41;;;;;;;1.40;1.30;;;;;;;;;;1768292;78;26494;-85
2022/03/13 12:01:10;;;;;;;1.62;1.50;;;;;;;;;;1801551;78;26338;-86
2022/03/13 12:03:37;;;;;;;1.70;1.60;;;;;;;;;;1801404;78;26716;-85
2022/03/13 12:06:05;;;;;;;1.62;1.52;;;;;;;;;;1802020;78;26310;-85
2022/03/13 12:08:46;;;;;;;1.42;1.40;;;;;;;;;;1799000;79;26380;-86
2022/03/13 12:11:35;;;;;;;2.15;1.40;;;;;;;;;;1791409;78;26286;-86
2022/03/13 12:14:00;;;;;;;1.30;1.30;;;;;;;;;;1794934;78;26834;-85
2022/03/13 12:16:27;;;;;;;1.70;1.45;;;;;;;;;;1802061;79;26247;-87
2022/03/13 12:18:58;;;;;;;1.40;1.40;;;;;;;;;;1807888;78;26271;-85
2022/03/13 12:21:26;;;;;;;5.37;1.50;;;;;;;;;;1805837;78;26318;-87
2022/03/13 12:23:53;;;;;;;1.40;1.40;;;;;;;;;;1804156;79;26240;-85
2022/03/13 12:26:22;;;;;;;1.72;1.40;;;;;;;;;;1809120;79;26200;-87
2022/03/13 12:28:50;;;;;;;1.90;1.30;;;;;;;;;;1796819;79;26302;-85
2022/03/13 12:31:18;;;;;;;1.90;1.70;;;;;;;;;;1801795;78;26239;-86
2022/03/13 12:33:47;;;;;;;2.87;1.80;;;;;;;;;;1805918;78;26280;-86
2022/03/13 12:36:15;;;;;;;3.80;2.20;;;;;;;;;;1812242;79;26212;-87
2022/03/13 12:38:43;;;;;;;2.20;2.10;;;;;;;;;;1807365;79;26743;-86
2022/03/13 12:41:11;;;;;;;2.45;2.20;;;;;;;;;;1810693;78;26832;-87
2022/03/13 12:43:50;;;;;;;3.33;2.42;;;;;;;;;;1796488;79;26273;-88
2022/03/13 12:46:18;;;;;;;3.83;2.87;;;;;;;;;;1808309;79;26287;-85
2022/03/13 12:48:56;;;;;;;6.50;2.77;;;;;;;;;;1801479;78;26260;-85
2022/03/13 12:51:38;;;;;;;3.27;2.27;;;;;;;;;;1815526;78;26285;-85
2022/03/13 12:54:07;;;;;;;3.72;2.60;;;;;;;;;;1803306;78;26352;-85
2022/03/13 12:56:36;;;;;;;10.38;2.77;;;;;;;;;;1801211;79;26258;-85
2022/03/13 12:59:03;;;;;;;4.22;2.45;;;;;;;;;;1791931;79;26274;-85
2022/03/13 13:01:30;;;;;;;5.08;2.70;;;;;;;;;;1788807;79;26208;-87
2022/03/13 13:03:58;;;;;;;5.00;2.40;;;;;;;;;;1793150;79;26273;-86
2022/03/13 13:06:32;;;;;;;4.05;2.37;;;;;;;;;;1800893;78;26309;-85
2022/03/13 13:08:59;;;;;;;2.47;2.27;;;;;;;;;;1796067;79;26305;-85
2022/03/13 13:11:31;;;;;;;2.83;2.60;;;;;;;;;;1808993;78;26334;-86
2022/03/13 13:13:59;;;;;;;6.55;2.45;;;;;;;;;;1803074;79;26341;-85
2022/03/13 13:16:30;;;;;;;4.53;2.22;;;;;;;;;;1803886;79;26271;-86
2022/03/13 13:19:01;;;;;;;5.12;2.42;;;;;;;;;;1800390;79;26255;-85
2022/03/13 13:21:35;;;;;;;3.95;2.15;;;;;;;;;;1808497;79;26686;-87
2022/03/13 13:24:21;;;;;;;2.00;1.90;;;;;;;;;;1807050;79;26318;-85
2022/03/13 13:26:48;;;;;;;4.60;2.10;;;;;;;;;;1800040;79;26730;-84
2022/03/13 13:29:17;;;;;;;4.70;1.87;;;;;;;;;;1802191;78;26807;-85
2022/03/13 13:31:44;;;;;;;3.08;1.57;;;;;;;;;;1789301;80;26283;-85
2022/03/13 13:34:17;;;;;;;2.60;1.77;;;;;;;;;;1787308;79;26274;-84
2022/03/13 13:36:45;;;;;;;1.75;1.70;;;;;;;;;;1791636;78;26746;-85
2022/03/13 13:39:12;;;;;;;5.80;1.85;;;;;;;;;;1794003;78;26747;-85
2022/03/13 13:41:39;;;;;;;2.70;1.70;;;;;;;;;;1790784;79;26299;-86
2022/03/13 13:44:07;;;;;;;3.02;1.87;;;;;;;;;;1793677;79;26717;-85
2022/03/13 13:46:35;;;;;;;2.45;1.35;;;;;;;;;;1795039;79;26260;-85
2022/03/13 13:49:02;;;;;;;1.92;1.40;;;;;;;;;;1792534;78;26257;-85
2022/03/13 13:51:31;;;;;;;3.33;1.42;;;;;;;;;;1791066;78;26201;-85
2022/03/13 13:54:15;;;;;;;2.00;1.50;;;;;;;;;;1787517;79;26307;-85
2022/03/13 13:56:43;;;;;;;1.82;1.30;;;;;;;;;;1791155;79;26350;-84
2022/03/13 13:59:18;;;;;;;3.77;1.30;;;;;;;;;;1796068;80;26755;-85
2022/03/13 14:01:47;;;;;;;3.00;1.35;;;;;;;;;;1792137;80;26256;-88
2022/03/13 14:04:15;;;;;;;4.03;1.27;;;;;;;;;;1794669;79;26268;-87
2022/03/13 14:06:43;;;;;;;1.37;1.20;;;;;;;;;;1790750;79;26374;-87
2022/03/13 14:09:10;;;;;;;2.40;1.30;;;;;;;;;;1794482;78;26253;-86
2022/03/13 14:11:40;;;;;;;2.52;1.30;;;;;;;;;;1799938;78;26612;-85
2022/03/13 14:14:07;;;;;;;4.45;1.40;;;;;;;;;;1784337;79;26357;-84
2022/03/13 14:16:35;;;;;;;2.20;1.12;;;;;;;;;;1790760;78;26301;-85
2022/03/13 14:19:03;;;;;;;1.27;1.10;;;;;;;;;;1783018;79;26286;-85
2022/03/13 14:21:30;;;;;;;1.42;1.07;;;;;;;;;;1793765;80;26815;-85
2022/03/13 14:23:58;;;;;;;1.20;1.20;;;;;;;;;;1794626;80;26215;-85
2022/03/13 14:26:25;;;;;;;1.15;1.12;;;;;;;;;;1794144;79;26369;-85
2022/03/13 14:28:52;;;;;;;1.95;1.30;;;;;;;;;;1791595;79;26264;-85
2022/03/13 14:31:19;;;;;;;1.80;1.12;;;;;;;;;;1790824;79;26704;-85
2022/03/13 14:33:47;;;;;;;1.85;1.17;;;;;;;;;;1802779;79;26835;-85
2022/03/13 14:36:14;;;;;;;1.12;1.12;;;;;;;;;;1801503;79;26742;-85
2022/03/13 14:38:48;;;;;;;1.82;0.90;;;;;;;;;;1805711;79;26283;-85
2022/03/13 14:41:13;;;;;;;1.70;1.00;;;;;;;;;;1798248;79;26287;-85
2022/03/13 14:43:41;;;;;;;2.00;1.00;;;;;;;;;;1804921;79;26521;-84
2022/03/13 14:46:12;;;;;;;1.75;1.00;;;;;;;;;;1794852;78;26298;-85
2022/03/13 14:48:40;;;;;;;1.02;0.90;;;;;;;;;;1789807;78;26266;-86
2022/03/13 14:51:08;;;;;;;2.08;1.10;;;;;;;;;;1800529;79;26687;-85